Time;durP1;ratioP1;P1;durP2;ratioP2;P2;SDS_P1;SDS_P2;PMS_P1;PMS_P2;Temp;Humidity;BMP_temperature;BMP_pressure;BME280_temperature;BME280_humidity;BME280_pressure;Samples;Min_cycle;Max_cycle;Signal;HPM_P1;HPM_P2
2021/01/24 00:01:56;;;;;;;25.03;11.83;;;4.60;86.90;;;;;;4977089;28;20595;-87
2021/01/24 00:04:22;;;;;;;21.27;12.37;;;4.60;87.00;;;;;;4977272;28;20026;-87
2021/01/24 00:06:47;;;;;;;22.00;11.33;;;4.60;87.00;;;;;;4977314;28;20057;-87
2021/01/24 00:09:13;;;;;;;21.37;11.90;;;4.60;87.00;;;;;;4977434;28;20133;-87
2021/01/24 00:11:38;;;;;;;23.87;12.57;;;4.60;87.00;;;;;;4977867;28;20034;-87
2021/01/24 00:14:04;;;;;;;24.67;12.60;;;4.50;86.90;;;;;;4977284;28;20143;-86
2021/01/24 00:16:29;;;;;;;24.30;13.23;;;4.50;86.90;;;;;;4977258;28;20042;-87
2021/01/24 00:18:55;;;;;;;23.73;12.83;;;4.50;87.00;;;;;;4977358;28;20122;-87
2021/01/24 00:21:21;;;;;;;23.93;11.97;;;4.50;87.20;;;;;;4994696;28;20027;-87
2021/01/24 00:23:46;;;;;;;22.67;12.60;;;4.50;87.30;;;;;;4977544;28;20162;-86
2021/01/24 00:26:12;;;;;;;23.97;13.03;;;4.50;87.50;;;;;;4977272;28;20065;-87
2021/01/24 00:28:37;;;;;;;23.37;11.93;;;4.40;87.40;;;;;;4994574;28;20054;-87
2021/01/24 00:31:03;;;;;;;24.80;13.13;;;4.50;87.50;;;;;;4977147;28;20023;-86
2021/01/24 00:33:29;;;;;;;25.47;13.13;;;4.50;87.50;;;;;;4994667;28;20034;-87
2021/01/24 00:35:54;;;;;;;22.10;12.17;;;4.40;87.60;;;;;;4977187;28;20030;-86
2021/01/24 00:38:20;;;;;;;25.90;13.27;;;4.40;87.70;;;;;;4966771;28;20075;-87
2021/01/24 00:40:45;;;;;;;23.97;12.77;;;4.40;87.70;;;;;;4975098;28;20499;-87
2021/01/24 00:43:11;;;;;;;21.93;12.13;;;4.40;87.60;;;;;;4975352;28;20106;-87
2021/01/24 00:45:37;;;;;;;24.77;12.60;;;4.40;87.60;;;;;;4957437;28;20066;-87
2021/01/24 00:48:03;;;;;;;25.03;13.07;;;4.40;87.80;;;;;;4957852;28;20042;-87
2021/01/24 00:50:28;;;;;;;23.57;12.57;;;4.40;87.80;;;;;;4960554;28;20030;-86
2021/01/24 00:52:54;;;;;;;27.03;12.97;;;4.40;87.80;;;;;;4979625;28;20045;-87
2021/01/24 00:55:19;;;;;;;25.97;13.10;;;4.40;87.90;;;;;;4961207;28;20029;-87
2021/01/24 00:57:45;;;;;;;23.70;13.30;;;4.40;88.00;;;;;;4962453;28;20027;-87
2021/01/24 01:00:11;;;;;;;24.37;13.03;;;4.50;87.90;;;;;;4961764;28;20560;-87
2021/01/24 01:02:37;;;;;;;23.27;12.33;;;4.40;87.90;;;;;;4978650;28;20027;-87
2021/01/24 01:05:03;;;;;;;24.40;13.10;;;4.40;87.80;;;;;;4961768;28;20547;-87
2021/01/24 01:07:29;;;;;;;25.20;12.63;;;4.40;88.00;;;;;;4978993;28;20046;-86
2021/01/24 01:09:55;;;;;;;25.77;13.10;;;4.40;88.10;;;;;;4961218;28;20027;-87
2021/01/24 01:12:20;;;;;;;25.67;14.17;;;4.40;88.20;;;;;;4961879;28;20059;-88
2021/01/24 01:14:46;;;;;;;23.90;13.17;;;4.40;88.10;;;;;;4961254;28;20054;-87
2021/01/24 01:17:12;;;;;;;24.57;13.97;;;4.40;87.90;;;;;;4978482;28;20076;-86
2021/01/24 01:19:37;;;;;;;22.50;12.67;;;4.40;88.00;;;;;;4961337;28;20054;-87
2021/01/24 01:22:03;;;;;;;25.97;12.90;;;4.40;88.80;;;;;;4961548;28;20033;-88
2021/01/24 01:24:28;;;;;;;23.50;11.83;;;4.40;88.10;;;;;;4961255;28;20030;-85
2021/01/24 01:26:54;;;;;;;25.23;13.77;;;4.40;88.10;;;;;;4978401;28;20058;-87
2021/01/24 01:29:19;;;;;;;23.47;12.80;;;4.50;88.00;;;;;;4961440;28;20030;-86
2021/01/24 01:31:45;;;;;;;25.03;14.43;;;4.40;88.00;;;;;;4978696;28;20039;-86
2021/01/24 01:34:11;;;;;;;24.17;13.23;;;4.40;88.10;;;;;;4961503;28;20030;-85
2021/01/24 01:36:37;;;;;;;24.30;13.60;;;4.40;88.20;;;;;;4960989;28;20035;-87
2021/01/24 01:39:03;;;;;;;24.60;12.77;;;4.40;88.20;;;;;;4976860;28;20030;-86
2021/01/24 01:41:33;;;;;;;25.27;13.30;;;4.40;88.10;;;;;;4980218;28;20037;-88
2021/01/24 01:43:59;;;;;;;24.90;13.80;;;4.40;88.20;;;;;;4980073;28;20381;-87
2021/01/24 01:46:27;;;;;;;25.33;13.13;;;4.40;88.10;;;;;;4980576;28;20034;-87
2021/01/24 01:48:53;;;;;;;26.52;13.43;;;4.40;88.20;;;;;;4979893;28;20046;-87
2021/01/24 01:51:19;;;;;;;25.27;13.47;;;4.40;88.30;;;;;;4980185;28;20034;-87
2021/01/24 01:53:45;;;;;;;25.03;13.30;;;4.40;88.20;;;;;;4980248;28;20388;-87
2021/01/24 01:56:12;;;;;;;26.87;13.57;;;4.50;88.30;;;;;;4997232;28;20046;-87
2021/01/24 01:58:38;;;;;;;27.63;13.50;;;4.50;88.10;;;;;;4996956;28;20093;-87
2021/01/24 02:01:08;;;;;;;24.93;13.20;;;4.50;88.00;;;;;;4979071;28;20046;-86
2021/01/24 02:03:34;;;;;;;25.90;12.97;;;4.50;88.10;;;;;;4979752;28;20031;-87
2021/01/24 02:06:23;;;;;;;26.23;13.57;;;4.50;88.00;;;;;;4979814;28;20117;-87
2021/01/24 02:09:11;;;;;;;25.93;13.03;;;4.50;88.10;;;;;;4979746;28;20026;-87
2021/01/24 02:11:48;;;;;;;25.33;13.63;;;4.50;88.10;;;;;;4980509;28;20073;-87
2021/01/24 02:14:30;;;;;;;24.00;13.00;;;4.40;88.10;;;;;;4997022;28;20399;-87
2021/01/24 02:17:00;;;;;;;26.23;13.77;;;4.40;88.20;;;;;;4979414;28;20377;-87
2021/01/24 02:19:49;;;;;;;23.23;12.37;;;4.40;88.90;;;;;;4980434;28;20368;-88
2021/01/24 02:22:16;;;;;;;;;;;4.40;88.30;;;;;;4999124;28;20034;-88
2021/01/24 02:24:48;;;;;;;24.03;12.53;;;4.40;88.50;;;;;;4980995;28;20287;-90
2021/01/24 02:27:35;;;;;;;25.70;13.13;;;4.40;88.60;;;;;;4981165;28;20518;-90
2021/01/24 02:30:25;;;;;;;24.73;12.10;;;4.40;88.60;;;;;;4997841;28;20503;-90
2021/01/24 02:32:57;;;;;;;24.73;12.47;;;4.40;88.80;;;;;;4980060;28;20044;-90
2021/01/24 02:35:27;;;;;;;26.37;12.80;;;4.40;88.80;;;;;;4980414;28;20480;-90
2021/01/24 02:37:53;;;;;;;24.03;12.60;;;4.30;88.80;;;;;;4980378;28;20392;-90
2021/01/24 02:40:20;;;;;;;21.40;11.83;;;4.30;88.80;;;;;;4980172;28;20500;-90
2021/01/24 02:42:48;;;;;;;23.13;12.47;;;4.30;88.90;;;;;;4980728;28;20448;-90
2021/01/24 02:45:14;;;;;;;23.83;12.00;;;4.30;88.90;;;;;;4980504;28;20097;-90
2021/01/24 02:47:40;;;;;;;23.23;12.97;;;4.30;88.90;;;;;;4980669;28;20030;-90
2021/01/24 02:50:07;;;;;;;25.03;12.30;;;4.30;88.80;;;;;;4997695;28;20530;-90
2021/01/24 02:52:34;;;;;;;24.60;12.93;;;4.30;88.90;;;;;;4980325;28;20026;-90
2021/01/24 02:55:01;;;;;;;24.80;13.10;;;4.30;89.10;;;;;;4979785;28;20030;-90
2021/01/24 02:57:27;;;;;;;22.17;12.00;;;4.30;89.20;;;;;;4980164;28;20407;-90
2021/01/24 02:59:52;;;;;;;22.73;12.83;;;4.30;89.10;;;;;;4980342;28;20030;-90
2021/01/24 03:02:18;;;;;;;26.30;12.17;;;4.30;88.90;;;;;;4980363;28;20026;-90
2021/01/24 03:04:43;;;;;;;22.87;12.23;;;4.30;88.90;;;;;;4980688;28;20090;-90
2021/01/24 03:07:09;;;;;;;22.77;12.60;;;4.30;88.90;;;;;;4980755;28;20034;-90
2021/01/24 03:09:35;;;;;;;24.67;12.33;;;4.30;88.90;;;;;;4979957;28;20031;-90
2021/01/24 03:12:03;;;;;;;24.37;12.67;;;4.30;89.00;;;;;;4979462;28;20030;-90
2021/01/24 03:14:32;;;;;;;25.60;12.85;;;4.30;89.00;;;;;;4979531;28;20033;-90
2021/01/24 03:17:00;;;;;;;22.50;11.48;;;4.30;88.80;;;;;;4980131;28;20123;-90
2021/01/24 03:19:28;;;;;;;25.83;13.57;;;4.30;88.90;;;;;;4979746;28;20022;-90
2021/01/24 03:21:55;;;;;;;22.60;12.27;;;4.20;89.00;;;;;;4980088;28;20552;-90
2021/01/24 03:24:22;;;;;;;22.20;11.57;;;4.30;88.90;;;;;;4995557;28;20010;-88
2021/01/24 03:26:50;;;;;;;22.47;11.70;;;4.30;88.90;;;;;;5002905;28;20019;-88
2021/01/24 03:29:15;;;;;;;25.13;12.90;;;4.30;89.00;;;;;;5019949;28;20018;-89
2021/01/24 03:31:46;;;;;;;23.70;12.30;;;4.20;89.00;;;;;;5002721;28;20053;-89
2021/01/24 03:34:29;;;;;;;22.53;11.57;;;4.20;89.10;;;;;;4986552;28;20041;-90
2021/01/24 03:36:58;;;;;;;23.37;12.73;;;4.20;88.80;;;;;;4979907;28;20109;-90
2021/01/24 03:39:24;;;;;;;23.08;12.13;;;4.20;88.90;;;;;;4996892;28;20014;-90
2021/01/24 03:41:49;;;;;;;22.80;12.33;;;4.20;89.10;;;;;;4980252;28;20030;-90
2021/01/24 03:44:15;;;;;;;22.43;12.80;;;4.10;89.30;;;;;;4979858;28;20034;-90
2021/01/24 03:46:41;;;;;;;22.30;13.13;;;4.10;89.30;;;;;;4979286;28;20431;-90
2021/01/24 03:49:07;;;;;;;21.77;11.97;;;4.10;89.30;;;;;;4979312;28;20076;-90
2021/01/24 03:51:33;;;;;;;23.20;12.67;;;4.10;89.30;;;;;;4979003;28;20030;-90
2021/01/24 03:53:59;;;;;;;23.50;12.57;;;4.10;89.10;;;;;;4978293;28;20088;-90
2021/01/24 03:56:24;;;;;;;21.90;11.53;;;4.10;89.10;;;;;;4979079;28;20384;-90
2021/01/24 03:58:50;;;;;;;22.97;12.40;;;4.10;89.10;;;;;;4979133;28;20030;-90
2021/01/24 04:01:16;;;;;;;24.80;12.83;;;4.10;89.80;;;;;;4978669;28;20049;-90
2021/01/24 04:03:41;;;;;;;24.23;14.17;;;4.10;89.20;;;;;;4978973;28;20506;-90
2021/01/24 04:06:08;;;;;;;21.70;12.27;;;4.20;89.20;;;;;;4978282;28;20058;-90
2021/01/24 04:08:34;;;;;;;24.63;12.10;;;4.10;89.30;;;;;;4978535;28;20030;-90
2021/01/24 04:10:59;;;;;;;23.47;13.00;;;4.10;89.30;;;;;;4978824;28;20049;-90
2021/01/24 04:13:25;;;;;;;25.03;12.93;;;4.10;89.40;;;;;;4995717;28;20033;-90
2021/01/24 04:15:51;;;;;;;22.73;12.20;;;4.10;89.50;;;;;;4977886;28;20377;-90
2021/01/24 04:18:17;;;;;;;23.57;12.27;;;4.10;89.60;;;;;;4977771;28;20384;-89
2021/01/24 04:20:42;;;;;;;25.60;12.67;;;4.10;89.40;;;;;;4977842;28;20026;-90
2021/01/24 04:23:08;;;;;;;24.03;12.33;;;4.10;89.40;;;;;;4977447;28;20551;-90
2021/01/24 04:25:33;;;;;;;23.30;13.20;;;4.10;89.50;;;;;;4977884;28;20368;-90
2021/01/24 04:27:59;;;;;;;23.53;11.77;;;4.10;89.50;;;;;;4994978;28;20480;-90
2021/01/24 04:30:25;;;;;;;22.20;12.70;;;4.20;89.50;;;;;;4977774;28;20479;-90
2021/01/24 04:32:50;;;;;;;24.70;12.93;;;4.20;89.40;;;;;;4977770;28;20546;-90
2021/01/24 04:35:16;;;;;;;23.80;12.67;;;4.20;89.60;;;;;;4995102;28;20507;-89
2021/01/24 04:37:42;;;;;;;24.30;12.87;;;4.20;89.70;;;;;;4989228;28;20019;-89
2021/01/24 04:40:08;;;;;;;25.37;13.23;;;4.10;89.70;;;;;;4958196;28;20532;-90
2021/01/24 04:42:34;;;;;;;25.93;13.27;;;4.10;89.80;;;;;;4958773;28;20027;-89
2021/01/24 04:45:00;;;;;;;25.90;13.67;;;4.10;89.80;;;;;;4975434;28;20162;-90
2021/01/24 04:47:26;;;;;;;26.40;13.63;;;4.10;89.80;;;;;;4958161;28;20023;-90
2021/01/24 04:49:52;;;;;;;24.93;13.27;;;4.10;89.80;;;;;;4958429;28;20026;-90
2021/01/24 04:52:18;;;;;;;23.10;12.90;;;4.20;89.70;;;;;;4957955;28;20134;-90
2021/01/24 04:54:44;;;;;;;23.97;13.27;;;4.20;89.70;;;;;;4958165;28;20062;-91
2021/01/24 04:57:10;;;;;;;24.93;12.57;;;4.20;89.80;;;;;;4958325;28;20050;-91
2021/01/24 04:59:36;;;;;;;24.23;12.80;;;4.20;89.90;;;;;;4958677;28;20073;-90
2021/01/24 05:02:02;;;;;;;26.10;14.37;;;4.10;89.70;;;;;;4958013;28;20023;-90
2021/01/24 05:04:28;;;;;;;24.50;13.43;;;4.10;90.30;;;;;;4975919;28;20037;-90
2021/01/24 05:06:54;;;;;;;25.10;14.10;;;4.10;90.10;;;;;;4957754;28;20033;-90
2021/01/24 05:09:23;;;;;;;25.57;13.87;;;4.00;90.20;;;;;;4958648;28;20030;-90
2021/01/24 05:11:50;;;;;;;23.88;13.23;;;4.00;90.10;;;;;;4957902;28;20072;-90
2021/01/24 05:14:18;;;;;;;26.77;14.03;;;4.00;90.20;;;;;;4957685;28;20031;-91
2021/01/24 05:16:43;;;;;;;25.10;13.87;;;4.00;90.30;;;;;;4957858;28;20041;-91
2021/01/24 05:19:10;;;;;;;25.87;14.13;;;4.00;90.20;;;;;;4958140;28;20110;-90
2021/01/24 05:21:37;;;;;;;26.10;13.73;;;4.00;90.20;;;;;;4957177;28;20030;-90
2021/01/24 05:24:07;;;;;;;25.10;14.57;;;4.00;90.20;;;;;;4958059;28;20605;-91
2021/01/24 05:26:32;;;;;;;23.53;12.87;;;3.90;90.30;;;;;;4958322;28;20027;-91
2021/01/24 05:28:58;;;;;;;24.50;13.17;;;3.90;90.30;;;;;;4958127;28;20038;-90
2021/01/24 05:31:23;;;;;;;26.77;13.90;;;4.00;90.30;;;;;;4957672;28;20026;-90
2021/01/24 05:33:49;;;;;;;25.73;13.77;;;3.90;90.30;;;;;;4957940;28;20383;-90
2021/01/24 05:36:15;;;;;;;25.20;12.53;;;3.90;90.30;;;;;;4959615;28;20034;-89
2021/01/24 05:38:41;;;;;;;25.40;13.77;;;3.90;90.40;;;;;;4961463;28;20057;-91
2021/01/24 05:41:09;;;;;;;26.17;13.60;;;3.90;90.40;;;;;;4961913;28;20034;-91
2021/01/24 05:43:42;;;;;;;23.00;13.40;;;3.90;90.40;;;;;;4978130;28;20026;-90
2021/01/24 05:46:10;;;;;;;24.80;13.67;;;3.80;90.50;;;;;;4978805;28;20097;-91
2021/01/24 05:48:37;;;;;;;24.97;13.47;;;3.80;90.90;;;;;;4961377;28;20029;-90
2021/01/24 05:51:05;;;;;;;23.57;13.57;;;3.80;90.70;;;;;;4961086;28;20050;-91
2021/01/24 05:53:38;;;;;;;26.27;15.30;;;3.80;90.60;;;;;;4960865;28;20054;-90
2021/01/24 05:56:11;;;;;;;25.13;13.90;;;3.70;90.70;;;;;;4960597;28;20533;-90
2021/01/24 05:58:40;;;;;;;25.70;14.20;;;3.70;90.70;;;;;;4961048;28;20031;-90
2021/01/24 06:01:07;;;;;;;25.08;13.75;;;3.70;90.70;;;;;;4961080;28;20031;-90
2021/01/24 06:03:34;;;;;;;26.67;14.63;;;3.70;90.80;;;;;;4961704;28;20039;-89
2021/01/24 06:06:00;;;;;;;27.40;15.83;;;3.60;90.90;;;;;;4961202;28;20518;-90
2021/01/24 06:08:26;;;;;;;25.47;14.27;;;3.60;90.80;;;;;;4961565;28;20109;-89
2021/01/24 06:10:53;;;;;;;25.47;14.27;;;3.50;90.90;;;;;;4978381;28;20089;-90
2021/01/24 06:13:23;;;;;;;28.63;16.53;;;3.50;91.00;;;;;;4960513;28;20041;-90
2021/01/24 06:15:52;;;;;;;26.30;15.90;;;3.50;91.00;;;;;;4960922;28;20030;-90
2021/01/24 06:18:39;;;;;;;26.27;15.80;;;3.50;91.10;;;;;;4961555;28;20046;-90
2021/01/24 06:21:06;;;;;;;29.30;17.00;;;3.50;91.00;;;;;;4960155;28;20125;-89
2021/01/24 06:23:38;;;;;;;30.57;17.00;;;3.40;91.00;;;;;;4961613;28;20054;-90
2021/01/24 06:26:11;;;;;;;26.53;16.47;;;3.40;91.00;;;;;;4960830;28;20492;-89
2021/01/24 06:28:42;;;;;;;28.10;16.50;;;3.40;91.00;;;;;;4960825;28;20122;-90
2021/01/24 06:31:16;;;;;;;27.47;17.07;;;3.40;91.10;;;;;;4960955;28;20022;-89
2021/01/24 06:33:51;;;;;;;29.80;16.77;;;3.40;91.00;;;;;;4960761;28;20114;-89
2021/01/24 06:36:18;;;;;;;29.83;17.37;;;3.40;91.10;;;;;;4960732;28;20019;-90
2021/01/24 06:38:51;;;;;;;29.90;17.73;;;3.40;91.10;;;;;;4973976;28;20018;-90
2021/01/24 06:41:41;;;;;;;31.20;18.07;;;3.40;91.10;;;;;;4979921;28;20033;-90
2021/01/24 06:44:40;;;;;;;27.27;16.00;;;3.30;91.20;;;;;;4996642;28;20026;-89
2021/01/24 06:47:08;;;;;;;27.13;15.60;;;3.30;91.20;;;;;;4979774;28;20479;-89
2021/01/24 06:49:38;;;;;;;28.57;16.53;;;3.30;91.10;;;;;;4979286;28;20088;-90
2021/01/24 06:52:18;;;;;;;27.73;16.90;;;3.40;91.10;;;;;;4979262;28;20031;-91
2021/01/24 06:54:44;;;;;;;27.87;16.60;;;3.40;91.10;;;;;;4979077;28;20125;-90
2021/01/24 06:57:10;;;;;;;26.90;16.40;;;3.40;91.10;;;;;;4979819;28;20086;-89
2021/01/24 06:59:35;;;;;;;31.00;17.87;;;3.40;91.10;;;;;;4996555;28;20060;-90
2021/01/24 07:02:20;;;;;;;31.50;17.73;;;3.40;91.10;;;;;;4978673;28;20026;-90
2021/01/24 07:05:07;;;;;;;28.77;18.07;;;3.40;91.10;;;;;;4978762;28;20018;-89
2021/01/24 07:07:35;;;;;;;31.33;18.60;;;3.40;91.10;;;;;;4978893;28;20023;-90
2021/01/24 07:10:02;;;;;;;30.50;18.67;;;3.40;91.10;;;;;;4978923;28;20050;-90
2021/01/24 07:12:39;;;;;;;29.97;18.80;;;3.40;91.00;;;;;;4978249;28;20038;-90
2021/01/24 07:15:20;;;;;;;32.00;20.20;;;3.40;91.00;;;;;;4976147;28;20030;-90
2021/01/24 07:18:00;;;;;;;32.87;21.40;;;3.40;91.30;;;;;;4978117;28;20030;-90
2021/01/24 07:20:26;;;;;;;35.83;22.63;;;3.40;91.10;;;;;;4978568;28;20018;-90
2021/01/24 07:22:54;;;;;;;33.80;21.20;;;3.40;91.10;;;;;;4978330;28;20049;-90
2021/01/24 07:25:20;;;;;;;37.63;22.90;;;3.40;91.10;;;;;;4995653;28;20026;-90
2021/01/24 07:27:51;;;;;;;35.57;22.07;;;3.40;91.10;;;;;;4978344;28;20483;-90
2021/01/24 07:30:16;;;;;;;35.93;21.67;;;3.50;91.10;;;;;;4977995;28;20068;-90
2021/01/24 07:32:42;;;;;;;37.47;22.53;;;3.40;91.00;;;;;;4978061;28;20030;-90
2021/01/24 07:35:11;;;;;;;34.00;21.60;;;3.40;91.10;;;;;;4978170;28;20033;-90
2021/01/24 07:37:37;;;;;;;37.90;21.30;;;3.40;91.10;;;;;;4978333;28;20023;-90
2021/01/24 07:40:03;;;;;;;35.97;22.73;;;3.50;91.20;;;;;;4977901;28;20372;-90
2021/01/24 07:42:29;;;;;;;36.37;21.97;;;3.40;91.10;;;;;;4978625;28;20479;-89
2021/01/24 07:44:55;;;;;;;36.43;22.10;;;3.40;91.10;;;;;;4978726;28;20130;-89
2021/01/24 07:47:21;;;;;;;35.40;21.67;;;3.50;91.30;;;;;;4979098;28;20037;-88
2021/01/24 07:49:46;;;;;;;34.93;21.47;;;3.40;91.30;;;;;;4979265;28;20022;-89
2021/01/24 07:52:12;;;;;;;37.73;21.63;;;3.50;91.10;;;;;;4977966;28;20018;-87
2021/01/24 07:54:38;;;;;;;37.10;21.97;;;3.50;91.10;;;;;;4979597;28;20053;-88
2021/01/24 07:57:05;;;;;;;36.43;21.60;;;3.50;91.30;;;;;;4995839;28;20559;-88
2021/01/24 07:59:30;;;;;;;33.93;20.50;;;3.50;91.10;;;;;;4978128;28;20535;-88
2021/01/24 08:01:57;;;;;;;35.70;20.27;;;3.60;91.00;;;;;;4995249;28;20022;-89
2021/01/24 08:04:23;;;;;;;30.33;18.23;;;3.60;91.00;;;;;;4977144;28;20027;-87
2021/01/24 08:06:51;;;;;;;32.37;19.77;;;3.60;91.00;;;;;;4994237;28;20050;-87
2021/01/24 08:09:17;;;;;;;35.47;20.40;;;3.60;91.20;;;;;;4977310;28;20037;-86
2021/01/24 08:11:43;;;;;;;31.70;17.93;;;3.50;91.10;;;;;;4977062;28;20031;-87
2021/01/24 08:14:09;;;;;;;32.07;19.23;;;3.50;91.10;;;;;;4994313;28;20037;-86
2021/01/24 08:16:36;;;;;;;33.03;19.07;;;3.60;91.00;;;;;;4994735;28;20030;-87
2021/01/24 08:19:05;;;;;;;31.40;19.23;;;3.60;91.00;;;;;;4977722;28;20033;-87
2021/01/24 08:21:32;;;;;;;31.65;18.90;;;3.60;91.00;;;;;;4977742;28;20595;-86
2021/01/24 08:23:58;;;;;;;30.13;18.70;;;3.60;91.30;;;;;;4977262;28;20030;-87
2021/01/24 08:26:24;;;;;;;33.67;18.53;;;3.70;90.90;;;;;;4995019;28;20593;-87
2021/01/24 08:28:50;;;;;;;30.93;17.63;;;3.70;90.90;;;;;;4976930;28;20061;-87
2021/01/24 08:31:20;;;;;;;31.37;17.37;;;3.70;90.90;;;;;;4976760;28;20117;-87
2021/01/24 08:33:53;;;;;;;29.43;16.37;;;3.70;90.90;;;;;;4994685;28;20105;-87
2021/01/24 08:36:24;;;;;;;30.07;16.03;;;3.70;90.90;;;;;;4976700;28;20026;-87
2021/01/24 08:38:50;;;;;;;27.23;15.53;;;3.70;90.90;;;;;;4977344;28;20116;-86
2021/01/24 08:41:17;;;;;;;28.23;14.83;;;3.70;90.90;;;;;;4976883;28;20022;-87
2021/01/24 08:43:44;;;;;;;28.40;14.77;;;3.70;90.90;;;;;;4994227;28;20021;-86
2021/01/24 08:46:26;;;;;;;25.63;14.40;;;3.70;91.00;;;;;;4994381;28;20027;-87
2021/01/24 08:49:07;;;;;;;26.00;14.27;;;3.60;91.00;;;;;;4977291;28;20026;-87
2021/01/24 08:51:46;;;;;;;25.47;13.67;;;3.60;90.90;;;;;;4976975;28;20080;-87
2021/01/24 08:54:19;;;;;;;24.05;13.30;;;3.70;90.90;;;;;;4977108;28;20117;-87
2021/01/24 08:56:45;;;;;;;23.03;13.30;;;3.60;90.90;;;;;;4976495;28;20047;-86
2021/01/24 08:59:26;;;;;;;27.53;13.90;;;3.60;90.90;;;;;;4976660;28;20387;-87
2021/01/24 09:01:55;;;;;;;22.60;12.00;;;3.70;91.10;;;;;;4993770;28;20077;-87
2021/01/24 09:04:22;;;;;;;26.67;13.23;;;3.60;91.00;;;;;;4976266;28;20027;-87
2021/01/24 09:07:09;;;;;;;25.40;13.20;;;3.60;91.00;;;;;;4991074;28;20688;-87
2021/01/24 09:09:37;;;;;;;26.10;13.23;;;3.70;90.90;;;;;;4976418;28;20034;-86
2021/01/24 09:12:03;;;;;;;22.90;12.27;;;3.60;91.00;;;;;;4997448;28;20399;-86
2021/01/24 09:14:29;;;;;;;27.00;12.90;;;3.70;91.00;;;;;;4997361;28;20038;-87
2021/01/24 09:17:17;;;;;;;21.83;12.23;;;3.70;91.00;;;;;;4980107;28;20387;-87
2021/01/24 09:19:45;;;;;;;25.80;13.33;;;3.70;91.00;;;;;;4997852;28;20399;-87
2021/01/24 09:22:13;;;;;;;21.20;11.03;;;3.70;91.10;;;;;;4980145;28;20435;-87
2021/01/24 09:24:40;;;;;;;22.77;11.90;;;3.70;90.90;;;;;;4980149;28;20042;-87
2021/01/24 09:27:08;;;;;;;23.83;11.60;;;3.70;90.90;;;;;;4997564;28;20320;-87
2021/01/24 09:29:35;;;;;;;19.93;10.47;;;3.70;90.90;;;;;;4979346;28;20054;-87
2021/01/24 09:32:02;;;;;;;21.80;11.93;;;3.70;90.90;;;;;;4979959;28;20032;-86
2021/01/24 09:34:27;;;;;;;21.90;11.37;;;3.70;90.90;;;;;;4980022;28;20439;-87
2021/01/24 09:36:53;;;;;;;22.33;11.70;;;3.70;90.90;;;;;;4979552;28;20027;-87
2021/01/24 09:39:19;;;;;;;23.70;12.67;;;3.70;91.00;;;;;;4961276;28;20113;-87
2021/01/24 09:41:44;;;;;;;22.13;11.07;;;3.70;91.40;;;;;;4977471;28;20027;-86
2021/01/24 09:44:10;;;;;;;20.47;11.03;;;3.80;91.00;;;;;;4977554;28;20538;-87
2021/01/24 09:46:36;;;;;;;21.20;10.90;;;3.80;91.00;;;;;;4977567;28;20054;-87
2021/01/24 09:49:02;;;;;;;20.23;10.40;;;3.80;91.00;;;;;;4960267;28;20031;-87
2021/01/24 09:51:28;;;;;;;22.07;10.80;;;3.80;91.10;;;;;;4960227;28;20093;-87
2021/01/24 09:53:57;;;;;;;20.77;11.03;;;3.80;91.10;;;;;;4960224;28;20034;-87
2021/01/24 09:56:27;;;;;;;21.25;10.57;;;3.80;91.00;;;;;;4959637;28;20046;-87
2021/01/24 09:58:54;;;;;;;23.83;10.90;;;3.80;91.00;;;;;;4959651;28;20448;-87
2021/01/24 10:01:20;;;;;;;23.17;11.23;;;3.80;91.00;;;;;;4959861;28;20018;-87
2021/01/24 10:03:46;;;;;;;21.83;10.73;;;3.80;91.00;;;;;;4960216;28;20023;-87
2021/01/24 10:06:12;;;;;;;22.80;11.33;;;3.80;90.90;;;;;;4977076;28;20102;-87
2021/01/24 10:08:38;;;;;;;22.53;11.10;;;3.80;90.90;;;;;;4959898;28;20539;-87
2021/01/24 10:11:04;;;;;;;21.50;11.47;;;3.80;91.00;;;;;;4959890;28;20503;-87
2021/01/24 10:13:29;;;;;;;23.53;11.83;;;3.80;91.10;;;;;;4977143;28;20054;-87
2021/01/24 10:15:55;;;;;;;21.27;11.60;;;3.80;91.10;;;;;;4959644;28;20117;-87
2021/01/24 10:18:21;;;;;;;22.17;12.07;;;3.80;91.00;;;;;;4959511;28;20038;-86
2021/01/24 10:20:47;;;;;;;21.87;12.23;;;3.90;91.00;;;;;;4959158;28;20074;-87
2021/01/24 10:23:15;;;;;;;26.63;14.00;;;3.90;91.00;;;;;;4959478;28;20027;-87
2021/01/24 10:25:40;;;;;;;24.70;13.60;;;3.90;91.00;;;;;;4958973;28;20088;-87
2021/01/24 10:28:06;;;;;;;27.43;14.03;;;3.90;91.10;;;;;;4959364;28;20133;-87
2021/01/24 10:30:32;;;;;;;26.27;14.93;;;3.90;90.90;;;;;;4959510;28;20555;-87
2021/01/24 10:32:58;;;;;;;28.27;14.67;;;3.90;91.00;;;;;;4976217;28;20045;-87
2021/01/24 10:35:23;;;;;;;26.37;14.47;;;3.90;91.00;;;;;;4959003;28;20200;-87
2021/01/24 10:37:49;;;;;;;25.60;14.37;;;3.90;91.00;;;;;;4965191;28;20451;-86
2021/01/24 10:40:15;;;;;;;27.87;15.60;;;3.90;91.00;;;;;;4978284;28;20550;-87
2021/01/24 10:42:40;;;;;;;26.40;15.47;;;3.90;91.00;;;;;;4978346;28;20057;-87
2021/01/24 10:45:08;;;;;;;26.07;14.67;;;4.00;91.20;;;;;;4995738;28;20081;-87
2021/01/24 10:47:33;;;;;;;27.73;16.33;;;4.00;90.90;;;;;;4978374;28;20033;-87
2021/01/24 10:49:59;;;;;;;30.87;16.33;;;4.00;90.90;;;;;;4978097;28;20034;-87
2021/01/24 10:52:25;;;;;;;27.30;15.67;;;4.00;91.00;;;;;;4978869;28;20037;-86
2021/01/24 10:54:50;;;;;;;29.13;15.87;;;4.00;90.90;;;;;;4988275;28;20018;-87
2021/01/24 10:57:16;;;;;;;31.30;16.87;;;4.00;91.00;;;;;;5003344;28;20100;-86
2021/01/24 10:59:42;;;;;;;33.03;18.60;;;4.00;91.30;;;;;;5003833;28;20050;-87
2021/01/24 11:02:08;;;;;;;36.87;19.90;;;4.00;91.00;;;;;;5019304;28;20041;-87
2021/01/24 11:04:33;;;;;;;39.73;21.37;;;4.00;91.20;;;;;;4981181;28;20030;-86
2021/01/24 11:07:03;;;;;;;41.13;23.80;;;3.90;91.00;;;;;;4978381;28;20177;-87
2021/01/24 11:09:29;;;;;;;45.53;24.50;;;4.00;91.10;;;;;;4978195;28;20026;-87
2021/01/24 11:11:55;;;;;;;46.00;25.93;;;4.00;91.20;;;;;;4995642;28;20503;-87
2021/01/24 11:14:20;;;;;;;42.37;24.50;;;4.00;91.10;;;;;;4995817;28;20034;-87
2021/01/24 11:16:46;;;;;;;43.30;23.87;;;4.00;91.00;;;;;;4978238;28;20033;-87
2021/01/24 11:19:11;;;;;;;42.20;23.57;;;4.00;91.00;;;;;;4977931;28;20026;-87
2021/01/24 11:21:37;;;;;;;43.80;25.60;;;4.10;91.00;;;;;;4977977;28;20030;-87
2021/01/24 11:24:03;;;;;;;44.80;24.93;;;4.10;91.00;;;;;;4978066;28;20027;-87
2021/01/24 11:26:28;;;;;;;43.40;25.33;;;4.00;91.00;;;;;;4977869;28;20041;-87
2021/01/24 11:28:54;;;;;;;42.47;22.43;;;4.10;91.00;;;;;;4995025;28;20038;-87
2021/01/24 11:31:19;;;;;;;42.00;23.67;;;4.10;91.00;;;;;;4995262;28;20031;-86
2021/01/24 11:33:45;;;;;;;41.43;20.93;;;4.10;90.90;;;;;;4977063;28;20476;-87
2021/01/24 11:36:12;;;;;;;37.20;20.87;;;4.20;90.90;;;;;;4995296;28;20502;-87
2021/01/24 11:38:38;;;;;;;41.63;21.37;;;4.10;91.00;;;;;;4965289;28;20027;-87
2021/01/24 11:41:04;;;;;;;37.70;21.30;;;4.10;90.90;;;;;;4976351;28;20358;-87
2021/01/24 11:43:30;;;;;;;37.97;20.53;;;4.20;90.90;;;;;;4976042;28;20113;-87
2021/01/24 11:45:56;;;;;;;34.13;19.07;;;4.20;91.00;;;;;;4975770;28;20489;-87
2021/01/24 11:48:22;;;;;;;35.23;19.93;;;4.20;90.90;;;;;;4958186;28;20126;-87
2021/01/24 11:50:48;;;;;;;38.30;20.13;;;4.20;91.00;;;;;;4958280;28;20085;-87
2021/01/24 11:53:16;;;;;;;35.93;19.17;;;4.20;90.90;;;;;;4975626;28;20027;-86
2021/01/24 11:55:42;;;;;;;30.33;16.77;;;4.20;90.90;;;;;;4958115;28;20047;-87
2021/01/24 11:58:07;;;;;;;31.60;16.73;;;4.20;90.90;;;;;;4975352;28;20530;-86
2021/01/24 12:00:33;;;;;;;32.13;16.60;;;4.20;90.90;;;;;;4958446;28;20019;-87
2021/01/24 12:02:58;;;;;;;30.57;15.40;;;4.20;91.00;;;;;;4975260;28;20027;-87
2021/01/24 12:05:24;;;;;;;26.23;14.33;;;4.20;90.90;;;;;;4957585;28;20070;-87
2021/01/24 12:07:49;;;;;;;22.43;11.70;;;4.20;91.00;;;;;;4975521;28;20058;-87
2021/01/24 12:10:15;;;;;;;23.30;10.77;;;4.20;91.10;;;;;;4957996;28;20086;-87
2021/01/24 12:12:40;;;;;;;25.30;11.60;;;4.20;91.00;;;;;;4974853;28;20377;-87
2021/01/24 12:15:07;;;;;;;22.43;10.93;;;4.20;90.90;;;;;;4957601;28;20484;-87
2021/01/24 12:17:32;;;;;;;22.23;10.80;;;4.20;90.90;;;;;;4975167;28;20062;-87
2021/01/24 12:19:58;;;;;;;22.93;10.33;;;4.10;91.00;;;;;;4957508;28;20066;-87
2021/01/24 12:22:23;;;;;;;21.03;9.80;;;4.10;91.00;;;;;;4974703;28;20039;-87
2021/01/24 12:24:49;;;;;;;20.47;9.43;;;4.10;91.00;;;;;;4974667;28;20042;-87
2021/01/24 12:27:14;;;;;;;21.60;9.67;;;4.20;91.00;;;;;;4974551;28;20035;-86
2021/01/24 12:29:40;;;;;;;20.53;8.97;;;4.10;91.00;;;;;;4957448;28;20488;-87
2021/01/24 12:32:06;;;;;;;22.10;9.87;;;4.10;90.90;;;;;;4957425;28;20031;-87
2021/01/24 12:34:32;;;;;;;19.77;9.47;;;4.20;91.10;;;;;;4957884;28;20089;-86
2021/01/24 12:36:57;;;;;;;21.63;8.97;;;4.20;91.20;;;;;;4957542;28;20094;-86
2021/01/24 12:39:23;;;;;;;22.57;9.67;;;4.20;91.00;;;;;;4976408;28;20033;-87
2021/01/24 12:41:48;;;;;;;20.10;9.23;;;4.20;91.00;;;;;;4976890;28;20522;-87